sensor_id;sensor_type;location;lat;lon;timestamp;temperature;humidity
68177;DHT22;56478;50.982;7.032;2023-08-24T00:01:20;20.76;71.34
68177;DHT22;56478;50.982;7.032;2023-08-24T00:03:45;20.73;71.31
68177;DHT22;56478;50.982;7.032;2023-08-24T00:06:12;20.68;71.73
68177;DHT22;56478;50.982;7.032;2023-08-24T00:08:37;20.59;71.88
68177;DHT22;56478;50.982;7.032;2023-08-24T00:11:03;20.63;72.01
68177;DHT22;56478;50.982;7.032;2023-08-24T00:13:29;20.59;71.97
68177;DHT22;56478;50.982;7.032;2023-08-24T00:15:55;20.61;72.52
68177;DHT22;56478;50.982;7.032;2023-08-24T00:18:21;20.59;72.54
68177;DHT22;56478;50.982;7.032;2023-08-24T00:20:48;20.46;72.87
68177;DHT22;56478;50.982;7.032;2023-08-24T00:23:13;20.44;72.90
68177;DHT22;56478;50.982;7.032;2023-08-24T00:25:39;20.39;73.17
68177;DHT22;56478;50.982;7.032;2023-08-24T00:28:06;20.42;73.25
68177;DHT22;56478;50.982;7.032;2023-08-24T00:30:32;20.44;73.97
68177;DHT22;56478;50.982;7.032;2023-08-24T00:32:58;20.42;74.24
68177;DHT22;56478;50.982;7.032;2023-08-24T00:35:23;20.42;74.37
68177;DHT22;56478;50.982;7.032;2023-08-24T00:37:49;20.37;74.43
68177;DHT22;56478;50.982;7.032;2023-08-24T00:40:16;20.38;74.65
68177;DHT22;56478;50.982;7.032;2023-08-24T00:42:45;20.39;74.63
68177;DHT22;56478;50.982;7.032;2023-08-24T00:45:12;20.34;74.81
68177;DHT22;56478;50.982;7.032;2023-08-24T00:47:43;20.35;74.92
68177;DHT22;56478;50.982;7.032;2023-08-24T00:50:10;20.29;74.76
68177;DHT22;56478;50.982;7.032;2023-08-24T00:52:37;20.25;75.06
68177;DHT22;56478;50.982;7.032;2023-08-24T00:55:05;20.29;75.08
68177;DHT22;56478;50.982;7.032;2023-08-24T00:57:32;20.24;74.68
68177;DHT22;56478;50.982;7.032;2023-08-24T00:59:59;20.17;74.58
68177;DHT22;56478;50.982;7.032;2023-08-24T01:02:25;20.16;74.55
68177;DHT22;56478;50.982;7.032;2023-08-24T01:04:51;20.14;74.61
68177;DHT22;56478;50.982;7.032;2023-08-24T01:07:17;20.13;74.49
68177;DHT22;56478;50.982;7.032;2023-08-24T01:09:43;20.17;74.82
68177;DHT22;56478;50.982;7.032;2023-08-24T01:12:20;20.20;74.86
68177;DHT22;56478;50.982;7.032;2023-08-24T01:17:26;20.13;75.04
68177;DHT22;56478;50.982;7.032;2023-08-24T01:19:54;20.10;74.52
68177;DHT22;56478;50.982;7.032;2023-08-24T01:22:32;20.11;74.16
68177;DHT22;56478;50.982;7.032;2023-08-24T01:27:36;20.00;73.81
68177;DHT22;56478;50.982;7.032;2023-08-24T01:30:03;19.93;73.33
68177;DHT22;56478;50.982;7.032;2023-08-24T01:32:36;19.89;73.59
68177;DHT22;56478;50.982;7.032;2023-08-24T01:35:04;19.85;74.22
68177;DHT22;56478;50.982;7.032;2023-08-24T01:37:30;19.87;74.13
68177;DHT22;56478;50.982;7.032;2023-08-24T01:40:20;19.87;73.71
68177;DHT22;56478;50.982;7.032;2023-08-24T01:43:03;19.87;74.06
68177;DHT22;56478;50.982;7.032;2023-08-24T01:45:30;19.77;73.95
68177;DHT22;56478;50.982;7.032;2023-08-24T01:47:57;19.80;73.85
68177;DHT22;56478;50.982;7.032;2023-08-24T01:50:24;19.82;73.61
68177;DHT22;56478;50.982;7.032;2023-08-24T01:52:50;19.76;73.66
68177;DHT22;56478;50.982;7.032;2023-08-24T01:55:19;19.76;74.18
68177;DHT22;56478;50.982;7.032;2023-08-24T01:57:44;19.80;74.25
68177;DHT22;56478;50.982;7.032;2023-08-24T02:00:10;19.79;74.00
68177;DHT22;56478;50.982;7.032;2023-08-24T02:02:36;19.77;73.89
68177;DHT22;56478;50.982;7.032;2023-08-24T02:05:02;19.75;74.07
68177;DHT22;56478;50.982;7.032;2023-08-24T02:07:28;19.75;74.33
68177;DHT22;56478;50.982;7.032;2023-08-24T02:09:54;19.70;74.30
68177;DHT22;56478;50.982;7.032;2023-08-24T02:12:19;19.70;74.62
68177;DHT22;56478;50.982;7.032;2023-08-24T02:14:45;19.63;74.72
68177;DHT22;56478;50.982;7.032;2023-08-24T02:17:11;19.65;74.95
68177;DHT22;56478;50.982;7.032;2023-08-24T02:19:36;19.62;74.53
68177;DHT22;56478;50.982;7.032;2023-08-24T02:22:02;19.69;74.87
68177;DHT22;56478;50.982;7.032;2023-08-24T02:24:27;19.62;75.03
68177;DHT22;56478;50.982;7.032;2023-08-24T02:26:53;19.65;74.97
68177;DHT22;56478;50.982;7.032;2023-08-24T02:29:18;19.63;75.54
68177;DHT22;56478;50.982;7.032;2023-08-24T02:31:44;19.65;75.74
68177;DHT22;56478;50.982;7.032;2023-08-24T02:34:10;19.70;75.29
68177;DHT22;56478;50.982;7.032;2023-08-24T02:36:35;19.69;74.54
68177;DHT22;56478;50.982;7.032;2023-08-24T02:39:01;19.68;74.85
68177;DHT22;56478;50.982;7.032;2023-08-24T02:41:26;19.68;74.67
68177;DHT22;56478;50.982;7.032;2023-08-24T02:43:52;19.73;75.19
68177;DHT22;56478;50.982;7.032;2023-08-24T02:46:20;19.73;75.04
68177;DHT22;56478;50.982;7.032;2023-08-24T02:48:46;19.80;74.45
68177;DHT22;56478;50.982;7.032;2023-08-24T02:51:13;19.76;75.17
68177;DHT22;56478;50.982;7.032;2023-08-24T02:53:38;19.79;74.35
68177;DHT22;56478;50.982;7.032;2023-08-24T02:56:04;19.80;73.85
68177;DHT22;56478;50.982;7.032;2023-08-24T02:58:30;19.75;73.77
68177;DHT22;56478;50.982;7.032;2023-08-24T03:00:56;19.83;73.66
68177;DHT22;56478;50.982;7.032;2023-08-24T03:03:23;19.89;73.62
68177;DHT22;56478;50.982;7.032;2023-08-24T03:05:59;19.92;74.33
68177;DHT22;56478;50.982;7.032;2023-08-24T03:08:25;19.93;74.49
68177;DHT22;56478;50.982;7.032;2023-08-24T03:10:50;19.98;74.50
68177;DHT22;56478;50.982;7.032;2023-08-24T03:13:16;20.01;74.37
68177;DHT22;56478;50.982;7.032;2023-08-24T03:15:41;20.06;73.88
68177;DHT22;56478;50.982;7.032;2023-08-24T03:18:07;20.01;74.37
68177;DHT22;56478;50.982;7.032;2023-08-24T03:20:34;19.96;74.71
68177;DHT22;56478;50.982;7.032;2023-08-24T03:22:59;19.94;74.76
68177;DHT22;56478;50.982;7.032;2023-08-24T03:25:24;19.98;74.80
68177;DHT22;56478;50.982;7.032;2023-08-24T03:27:51;20.00;75.27
68177;DHT22;56478;50.982;7.032;2023-08-24T03:30:17;20.04;75.17
68177;DHT22;56478;50.982;7.032;2023-08-24T03:32:42;20.03;75.11
68177;DHT22;56478;50.982;7.032;2023-08-24T03:35:08;20.04;75.78
68177;DHT22;56478;50.982;7.032;2023-08-24T03:37:33;20.03;75.50
68177;DHT22;56478;50.982;7.032;2023-08-24T03:39:59;20.01;75.19
68177;DHT22;56478;50.982;7.032;2023-08-24T03:42:25;20.01;75.25
68177;DHT22;56478;50.982;7.032;2023-08-24T03:44:50;20.01;75.19
68177;DHT22;56478;50.982;7.032;2023-08-24T03:47:16;20.01;75.89
68177;DHT22;56478;50.982;7.032;2023-08-24T03:49:44;20.00;75.87
68177;DHT22;56478;50.982;7.032;2023-08-24T03:52:10;20.03;76.09
68177;DHT22;56478;50.982;7.032;2023-08-24T03:54:35;20.01;76.11
68177;DHT22;56478;50.982;7.032;2023-08-24T03:57:01;19.98;75.38
68177;DHT22;56478;50.982;7.032;2023-08-24T03:59:27;20.09;75.26
68177;DHT22;56478;50.982;7.032;2023-08-24T04:01:52;20.10;75.62
68177;DHT22;56478;50.982;7.032;2023-08-24T04:04:18;20.11;75.40
68177;DHT22;56478;50.982;7.032;2023-08-24T04:06:43;20.14;75.96
68177;DHT22;56478;50.982;7.032;2023-08-24T04:09:09;20.17;75.74
68177;DHT22;56478;50.982;7.032;2023-08-24T04:11:35;20.21;75.48
68177;DHT22;56478;50.982;7.032;2023-08-24T04:14:01;20.27;74.80
68177;DHT22;56478;50.982;7.032;2023-08-24T04:16:27;20.27;74.16
68177;DHT22;56478;50.982;7.032;2023-08-24T04:18:52;20.28;74.51
68177;DHT22;56478;50.982;7.032;2023-08-24T04:21:18;20.32;74.27
68177;DHT22;56478;50.982;7.032;2023-08-24T04:23:43;20.27;74.63
68177;DHT22;56478;50.982;7.032;2023-08-24T04:26:13;20.27;74.82
68177;DHT22;56478;50.982;7.032;2023-08-24T04:28:39;20.27;74.40
68177;DHT22;56478;50.982;7.032;2023-08-24T04:31:05;20.24;74.30
68177;DHT22;56478;50.982;7.032;2023-08-24T04:33:31;20.20;73.72
68177;DHT22;56478;50.982;7.032;2023-08-24T04:35:57;20.10;74.53
68177;DHT22;56478;50.982;7.032;2023-08-24T04:38:23;20.07;74.75
68177;DHT22;56478;50.982;7.032;2023-08-24T04:40:51;19.98;75.52
68177;DHT22;56478;50.982;7.032;2023-08-24T04:43:18;20.01;75.52
68177;DHT22;56478;50.982;7.032;2023-08-24T04:45:46;20.06;76.35
68177;DHT22;56478;50.982;7.032;2023-08-24T04:48:12;20.07;76.01
68177;DHT22;56478;50.982;7.032;2023-08-24T04:50:39;20.10;77.44
68177;DHT22;56478;50.982;7.032;2023-08-24T04:53:05;20.11;75.95
68177;DHT22;56478;50.982;7.032;2023-08-24T04:55:31;20.03;77.15
68177;DHT22;56478;50.982;7.032;2023-08-24T04:57:56;19.96;76.30
68177;DHT22;56478;50.982;7.032;2023-08-24T05:00:22;19.89;78.55
68177;DHT22;56478;50.982;7.032;2023-08-24T05:02:48;19.80;77.32
68177;DHT22;56478;50.982;7.032;2023-08-24T05:05:13;19.73;77.89
68177;DHT22;56478;50.982;7.032;2023-08-24T05:07:40;19.55;78.88
68177;DHT22;56478;50.982;7.032;2023-08-24T05:10:06;19.45;78.97
68177;DHT22;56478;50.982;7.032;2023-08-24T05:12:32;19.38;79.17
68177;DHT22;56478;50.982;7.032;2023-08-24T05:15:01;19.15;79.94
68177;DHT22;56478;50.982;7.032;2023-08-24T05:17:28;18.97;80.06
68177;DHT22;56478;50.982;7.032;2023-08-24T05:19:54;18.89;80.92
68177;DHT22;56478;50.982;7.032;2023-08-24T05:22:20;18.92;81.00
68177;DHT22;56478;50.982;7.032;2023-08-24T05:24:46;18.97;81.19
68177;DHT22;56478;50.982;7.032;2023-08-24T05:27:12;18.97;80.98
68177;DHT22;56478;50.982;7.032;2023-08-24T05:29:37;19.04;81.87
68177;DHT22;56478;50.982;7.032;2023-08-24T05:32:03;19.17;80.67
68177;DHT22;56478;50.982;7.032;2023-08-24T05:34:29;19.25;82.31
68177;DHT22;56478;50.982;7.032;2023-08-24T05:36:54;19.30;81.26
68177;DHT22;56478;50.982;7.032;2023-08-24T05:39:20;19.24;81.66
68177;DHT22;56478;50.982;7.032;2023-08-24T05:41:45;19.45;82.19
68177;DHT22;56478;50.982;7.032;2023-08-24T05:44:11;19.57;81.53
68177;DHT22;56478;50.982;7.032;2023-08-24T05:46:37;19.65;79.94
68177;DHT22;56478;50.982;7.032;2023-08-24T05:49:02;19.62;80.38
68177;DHT22;56478;50.982;7.032;2023-08-24T05:51:28;19.69;81.03
68177;DHT22;56478;50.982;7.032;2023-08-24T05:53:54;19.82;81.83
68177;DHT22;56478;50.982;7.032;2023-08-24T05:56:24;19.85;81.01
68177;DHT22;56478;50.982;7.032;2023-08-24T05:58:50;19.90;81.42
68177;DHT22;56478;50.982;7.032;2023-08-24T06:01:15;19.97;81.55
68177;DHT22;56478;50.982;7.032;2023-08-24T06:03:41;20.03;81.44
68177;DHT22;56478;50.982;7.032;2023-08-24T06:06:06;20.14;80.40
68177;DHT22;56478;50.982;7.032;2023-08-24T06:08:34;20.21;80.86
68177;DHT22;56478;50.982;7.032;2023-08-24T06:10:59;20.29;80.14
68177;DHT22;56478;50.982;7.032;2023-08-24T06:13:25;20.35;79.30
68177;DHT22;56478;50.982;7.032;2023-08-24T06:15:51;20.29;79.69
68177;DHT22;56478;50.982;7.032;2023-08-24T06:18:17;20.24;79.08
68177;DHT22;56478;50.982;7.032;2023-08-24T06:20:42;20.16;79.04
68177;DHT22;56478;50.982;7.032;2023-08-24T06:23:08;20.25;79.19
68177;DHT22;56478;50.982;7.032;2023-08-24T06:25:34;20.41;78.53
68177;DHT22;56478;50.982;7.032;2023-08-24T06:28:00;21.15;76.72
68177;DHT22;56478;50.982;7.032;2023-08-24T06:30:28;21.66;76.30
68177;DHT22;56478;50.982;7.032;2023-08-24T06:32:54;23.51;70.05
68177;DHT22;56478;50.982;7.032;2023-08-24T06:35:19;25.12;65.31
68177;DHT22;56478;50.982;7.032;2023-08-24T06:37:45;25.19;63.33
68177;DHT22;56478;50.982;7.032;2023-08-24T06:40:10;25.14;62.30
68177;DHT22;56478;50.982;7.032;2023-08-24T06:42:36;25.70;61.52
68177;DHT22;56478;50.982;7.032;2023-08-24T06:45:02;26.63;59.62
68177;DHT22;56478;50.982;7.032;2023-08-24T06:47:27;27.16;57.49
68177;DHT22;56478;50.982;7.032;2023-08-24T06:49:52;27.08;57.45
68177;DHT22;56478;50.982;7.032;2023-08-24T06:52:18;27.46;56.16
68177;DHT22;56478;50.982;7.032;2023-08-24T06:54:44;27.34;57.02
68177;DHT22;56478;50.982;7.032;2023-08-24T06:57:10;28.47;54.04
68177;DHT22;56478;50.982;7.032;2023-08-24T06:59:35;28.60;52.59
68177;DHT22;56478;50.982;7.032;2023-08-24T07:02:00;29.57;51.48
68177;DHT22;56478;50.982;7.032;2023-08-24T07:04:26;29.98;49.28
68177;DHT22;56478;50.982;7.032;2023-08-24T07:06:52;30.70;48.57
68177;DHT22;56478;50.982;7.032;2023-08-24T07:09:19;30.57;49.74
68177;DHT22;56478;50.982;7.032;2023-08-24T07:11:44;31.42;46.11
68177;DHT22;56478;50.982;7.032;2023-08-24T07:14:15;32.55;43.92
68177;DHT22;56478;50.982;7.032;2023-08-24T07:16:41;32.59;43.14
68177;DHT22;56478;50.982;7.032;2023-08-24T07:19:06;32.46;43.22
68177;DHT22;56478;50.982;7.032;2023-08-24T07:21:32;32.91;43.04
68177;DHT22;56478;50.982;7.032;2023-08-24T07:24:00;33.42;43.96
68177;DHT22;56478;50.982;7.032;2023-08-24T07:26:26;34.52;39.80
68177;DHT22;56478;50.982;7.032;2023-08-24T07:28:52;34.97;38.55
68177;DHT22;56478;50.982;7.032;2023-08-24T07:31:17;35.74;37.84
68177;DHT22;56478;50.982;7.032;2023-08-24T07:33:44;34.97;40.77
68177;DHT22;56478;50.982;7.032;2023-08-24T07:36:18;36.17;37.52
68177;DHT22;56478;50.982;7.032;2023-08-24T07:38:46;35.39;39.54
68177;DHT22;56478;50.982;7.032;2023-08-24T07:41:17;36.53;35.46
68177;DHT22;56478;50.982;7.032;2023-08-24T07:43:52;36.92;36.59
68177;DHT22;56478;50.982;7.032;2023-08-24T07:46:18;37.63;33.24
68177;DHT22;56478;50.982;7.032;2023-08-24T07:48:43;38.08;33.32
68177;DHT22;56478;50.982;7.032;2023-08-24T07:51:17;37.41;34.15
68177;DHT22;56478;50.982;7.032;2023-08-24T07:53:43;38.31;33.31
68177;DHT22;56478;50.982;7.032;2023-08-24T07:56:08;37.39;35.03
68177;DHT22;56478;50.982;7.032;2023-08-24T07:58:40;37.46;34.99
68177;DHT22;56478;50.982;7.032;2023-08-24T08:01:08;37.74;33.58
68177;DHT22;56478;50.982;7.032;2023-08-24T08:03:35;37.66;34.70
68177;DHT22;56478;50.982;7.032;2023-08-24T08:06:01;38.11;33.25
68177;DHT22;56478;50.982;7.032;2023-08-24T08:08:27;37.52;34.24
68177;DHT22;56478;50.982;7.032;2023-08-24T08:11:02;38.32;32.01
68177;DHT22;56478;50.982;7.032;2023-08-24T08:20:14;36.80;34.91
68177;DHT22;56478;50.982;7.032;2023-08-24T08:22:39;35.90;36.10
68177;DHT22;56478;50.982;7.032;2023-08-24T08:25:06;36.38;35.89
68177;DHT22;56478;50.982;7.032;2023-08-24T08:27:31;36.74;35.41
68177;DHT22;56478;50.982;7.032;2023-08-24T08:29:58;36.62;36.23
68177;DHT22;56478;50.982;7.032;2023-08-24T08:32:23;37.04;34.84
68177;DHT22;56478;50.982;7.032;2023-08-24T08:34:53;36.74;35.96
68177;DHT22;56478;50.982;7.032;2023-08-24T08:37:19;37.41;33.93
68177;DHT22;56478;50.982;7.032;2023-08-24T08:39:44;38.12;33.56
68177;DHT22;56478;50.982;7.032;2023-08-24T08:42:14;37.87;34.27
68177;DHT22;56478;50.982;7.032;2023-08-24T08:44:47;37.31;33.92
68177;DHT22;56478;50.982;7.032;2023-08-24T08:47:15;36.57;35.29
68177;DHT22;56478;50.982;7.032;2023-08-24T08:49:42;35.69;36.78
68177;DHT22;56478;50.982;7.032;2023-08-24T08:52:14;36.17;35.42
68177;DHT22;56478;50.982;7.032;2023-08-24T08:54:39;36.52;34.85
68177;DHT22;56478;50.982;7.032;2023-08-24T08:57:06;36.88;34.39
68177;DHT22;56478;50.982;7.032;2023-08-24T08:59:32;36.05;35.59
68177;DHT22;56478;50.982;7.032;2023-08-24T09:02:01;36.95;34.87
68177;DHT22;56478;50.982;7.032;2023-08-24T09:04:29;36.92;34.52
68177;DHT22;56478;50.982;7.032;2023-08-24T09:06:55;37.84;32.74
68177;DHT22;56478;50.982;7.032;2023-08-24T09:09:21;37.02;35.02
68177;DHT22;56478;50.982;7.032;2023-08-24T09:11:48;37.74;33.70
68177;DHT22;56478;50.982;7.032;2023-08-24T09:14:14;37.70;33.45
68177;DHT22;56478;50.982;7.032;2023-08-24T09:16:41;37.21;33.95
68177;DHT22;56478;50.982;7.032;2023-08-24T09:19:06;38.35;32.54
68177;DHT22;56478;50.982;7.032;2023-08-24T09:21:38;37.63;32.63
68177;DHT22;56478;50.982;7.032;2023-08-24T09:24:06;36.43;34.80
68177;DHT22;56478;50.982;7.032;2023-08-24T09:26:36;36.46;34.57
68177;DHT22;56478;50.982;7.032;2023-08-24T09:29:19;36.98;34.06
68177;DHT22;56478;50.982;7.032;2023-08-24T09:31:45;36.76;34.86
68177;DHT22;56478;50.982;7.032;2023-08-24T09:34:11;36.52;35.53
68177;DHT22;56478;50.982;7.032;2023-08-24T09:36:37;36.72;34.67
68177;DHT22;56478;50.982;7.032;2023-08-24T09:39:04;36.14;35.25
68177;DHT22;56478;50.982;7.032;2023-08-24T09:41:44;35.60;35.89
68177;DHT22;56478;50.982;7.032;2023-08-24T09:44:10;35.88;36.17
68177;DHT22;56478;50.982;7.032;2023-08-24T09:46:37;35.91;36.69
68177;DHT22;56478;50.982;7.032;2023-08-24T09:49:05;34.98;36.52
68177;DHT22;56478;50.982;7.032;2023-08-24T09:51:32;34.49;38.00
68177;DHT22;56478;50.982;7.032;2023-08-24T09:53:58;34.13;37.82
68177;DHT22;56478;50.982;7.032;2023-08-24T09:56:28;33.04;40.13
68177;DHT22;56478;50.982;7.032;2023-08-24T09:58:54;32.59;41.66
68177;DHT22;56478;50.982;7.032;2023-08-24T10:01:20;33.15;40.70
68177;DHT22;56478;50.982;7.032;2023-08-24T10:03:46;33.04;40.99
68177;DHT22;56478;50.982;7.032;2023-08-24T10:06:13;33.21;40.40
68177;DHT22;56478;50.982;7.032;2023-08-24T10:08:43;33.50;40.49
68177;DHT22;56478;50.982;7.032;2023-08-24T10:11:14;33.37;41.08
68177;DHT22;56478;50.982;7.032;2023-08-24T10:13:44;33.90;40.08
68177;DHT22;56478;50.982;7.032;2023-08-24T10:16:13;33.84;40.77
68177;DHT22;56478;50.982;7.032;2023-08-24T10:18:40;33.97;40.41
68177;DHT22;56478;50.982;7.032;2023-08-24T10:21:07;33.81;40.59
68177;DHT22;56478;50.982;7.032;2023-08-24T10:23:34;33.49;40.24
68177;DHT22;56478;50.982;7.032;2023-08-24T10:26:02;32.97;41.35
68177;DHT22;56478;50.982;7.032;2023-08-24T10:28:28;32.52;42.33
68177;DHT22;56478;50.982;7.032;2023-08-24T10:30:57;31.89;44.19
68177;DHT22;56478;50.982;7.032;2023-08-24T10:33:24;32.35;43.04
68177;DHT22;56478;50.982;7.032;2023-08-24T10:35:50;32.32;43.39
68177;DHT22;56478;50.982;7.032;2023-08-24T10:38:27;31.84;43.74
68177;DHT22;56478;50.982;7.032;2023-08-24T10:40:53;31.22;45.18
68177;DHT22;56478;50.982;7.032;2023-08-24T10:43:19;31.18;45.52
68177;DHT22;56478;50.982;7.032;2023-08-24T10:46:11;31.14;45.63
68177;DHT22;56478;50.982;7.032;2023-08-24T10:53:57;31.51;44.81
68177;DHT22;56478;50.982;7.032;2023-08-24T10:56:38;31.35;45.22
68177;DHT22;56478;50.982;7.032;2023-08-24T10:59:14;31.36;43.78
68177;DHT22;56478;50.982;7.032;2023-08-24T11:04:32;31.56;43.54
68177;DHT22;56478;50.982;7.032;2023-08-24T11:06:59;31.53;42.90
68177;DHT22;56478;50.982;7.032;2023-08-24T11:10:10;31.44;42.62
68177;DHT22;56478;50.982;7.032;2023-08-24T11:16:45;31.08;44.54
68177;DHT22;56478;50.982;7.032;2023-08-24T11:19:19;30.90;44.29
68177;DHT22;56478;50.982;7.032;2023-08-24T11:24:47;30.83;47.03
68177;DHT22;56478;50.982;7.032;2023-08-24T11:27:13;31.02;45.42
68177;DHT22;56478;50.982;7.032;2023-08-24T11:29:40;30.60;46.42
68177;DHT22;56478;50.982;7.032;2023-08-24T11:32:11;30.63;46.26
68177;DHT22;56478;50.982;7.032;2023-08-24T11:34:38;30.52;47.49
68177;DHT22;56478;50.982;7.032;2023-08-24T11:37:04;30.28;45.01
68177;DHT22;56478;50.982;7.032;2023-08-24T11:39:29;30.22;45.63
68177;DHT22;56478;50.982;7.032;2023-08-24T11:42:01;30.14;46.34
68177;DHT22;56478;50.982;7.032;2023-08-24T11:44:28;29.84;45.76
68177;DHT22;56478;50.982;7.032;2023-08-24T11:46:56;29.95;45.97
68177;DHT22;56478;50.982;7.032;2023-08-24T11:49:22;30.01;44.87
68177;DHT22;56478;50.982;7.032;2023-08-24T11:51:48;29.76;45.91
68177;DHT22;56478;50.982;7.032;2023-08-24T11:54:18;29.50;45.47
68177;DHT22;56478;50.982;7.032;2023-08-24T11:56:44;29.45;45.37
68177;DHT22;56478;50.982;7.032;2023-08-24T11:59:14;29.53;45.50
68177;DHT22;56478;50.982;7.032;2023-08-24T12:01:41;29.53;45.65
68177;DHT22;56478;50.982;7.032;2023-08-24T12:04:07;29.63;47.43
68177;DHT22;56478;50.982;7.032;2023-08-24T12:06:33;29.80;45.41
68177;DHT22;56478;50.982;7.032;2023-08-24T12:09:04;29.94;45.91
68177;DHT22;56478;50.982;7.032;2023-08-24T12:11:35;29.73;46.01
68177;DHT22;56478;50.982;7.032;2023-08-24T12:14:01;29.69;46.68
68177;DHT22;56478;50.982;7.032;2023-08-24T12:16:36;29.70;46.43
68177;DHT22;56478;50.982;7.032;2023-08-24T12:22:49;29.56;48.08
68177;DHT22;56478;50.982;7.032;2023-08-24T12:25:25;29.46;49.05
68177;DHT22;56478;50.982;7.032;2023-08-24T12:27:52;29.53;48.38
68177;DHT22;56478;50.982;7.032;2023-08-24T12:30:29;29.30;49.67
68177;DHT22;56478;50.982;7.032;2023-08-24T12:33:00;29.11;49.73
68177;DHT22;56478;50.982;7.032;2023-08-24T12:35:34;29.02;51.36
68177;DHT22;56478;50.982;7.032;2023-08-24T12:38:03;28.87;51.50
68177;DHT22;56478;50.982;7.032;2023-08-24T12:40:55;28.84;50.98
68177;DHT22;56478;50.982;7.032;2023-08-24T12:43:23;28.68;52.40
68177;DHT22;56478;50.982;7.032;2023-08-24T12:45:48;28.55;52.54
68177;DHT22;56478;50.982;7.032;2023-08-24T12:48:14;28.46;53.12
68177;DHT22;56478;50.982;7.032;2023-08-24T12:50:39;28.25;54.50
68177;DHT22;56478;50.982;7.032;2023-08-24T12:53:05;28.11;55.40
68177;DHT22;56478;50.982;7.032;2023-08-24T12:55:35;27.84;56.04
68177;DHT22;56478;50.982;7.032;2023-08-24T12:58:01;27.56;57.51
68177;DHT22;56478;50.982;7.032;2023-08-24T13:00:26;27.38;57.59
68177;DHT22;56478;50.982;7.032;2023-08-24T13:02:55;27.36;58.75
68177;DHT22;56478;50.982;7.032;2023-08-24T13:05:24;27.38;58.17
68177;DHT22;56478;50.982;7.032;2023-08-24T13:07:56;27.45;59.03
68177;DHT22;56478;50.982;7.032;2023-08-24T13:10:22;27.32;61.53
68177;DHT22;56478;50.982;7.032;2023-08-24T13:12:47;27.25;61.64
68177;DHT22;56478;50.982;7.032;2023-08-24T13:15:13;27.12;63.23
68177;DHT22;56478;50.982;7.032;2023-08-24T13:17:38;27.00;65.66
68177;DHT22;56478;50.982;7.032;2023-08-24T13:20:05;26.95;65.05
68177;DHT22;56478;50.982;7.032;2023-08-24T13:22:31;26.90;65.42
68177;DHT22;56478;50.982;7.032;2023-08-24T13:24:57;26.90;65.00
68177;DHT22;56478;50.982;7.032;2023-08-24T13:27:22;26.98;64.84
68177;DHT22;56478;50.982;7.032;2023-08-24T13:29:48;26.94;65.84
68177;DHT22;56478;50.982;7.032;2023-08-24T13:32:13;26.76;64.75
68177;DHT22;56478;50.982;7.032;2023-08-24T13:34:39;27.02;64.26
68177;DHT22;56478;50.982;7.032;2023-08-24T13:37:04;27.01;64.52
68177;DHT22;56478;50.982;7.032;2023-08-24T13:39:30;26.92;64.86
68177;DHT22;56478;50.982;7.032;2023-08-24T13:41:57;26.98;64.78
68177;DHT22;56478;50.982;7.032;2023-08-24T13:44:23;27.05;64.09
68177;DHT22;56478;50.982;7.032;2023-08-24T13:46:50;27.12;63.88
68177;DHT22;56478;50.982;7.032;2023-08-24T13:49:17;27.00;63.96
68177;DHT22;56478;50.982;7.032;2023-08-24T13:51:42;27.01;62.81
68177;DHT22;56478;50.982;7.032;2023-08-24T13:54:15;26.83;63.06
68177;DHT22;56478;50.982;7.032;2023-08-24T13:56:42;26.97;65.23
68177;DHT22;56478;50.982;7.032;2023-08-24T13:59:07;26.97;64.82
68177;DHT22;56478;50.982;7.032;2023-08-24T14:01:33;26.83;64.93
68177;DHT22;56478;50.982;7.032;2023-08-24T14:03:58;27.01;66.10
68177;DHT22;56478;50.982;7.032;2023-08-24T14:06:24;26.80;64.82
68177;DHT22;56478;50.982;7.032;2023-08-24T14:08:49;26.80;62.52
68177;DHT22;56478;50.982;7.032;2023-08-24T14:11:15;26.86;66.05
68177;DHT22;56478;50.982;7.032;2023-08-24T14:13:41;26.86;65.48
68177;DHT22;56478;50.982;7.032;2023-08-24T14:16:07;26.86;65.90
68177;DHT22;56478;50.982;7.032;2023-08-24T14:18:32;26.86;65.87
68177;DHT22;56478;50.982;7.032;2023-08-24T14:21:01;26.73;66.47
68177;DHT22;56478;50.982;7.032;2023-08-24T14:23:27;26.77;67.40
68177;DHT22;56478;50.982;7.032;2023-08-24T14:25:53;26.67;67.51
68177;DHT22;56478;50.982;7.032;2023-08-24T14:28:20;26.70;67.22
68177;DHT22;56478;50.982;7.032;2023-08-24T14:30:50;26.69;68.10
68177;DHT22;56478;50.982;7.032;2023-08-24T14:33:16;26.45;62.98
68177;DHT22;56478;50.982;7.032;2023-08-24T14:35:50;26.09;64.95
68177;DHT22;56478;50.982;7.032;2023-08-24T14:38:15;26.01;64.33
68177;DHT22;56478;50.982;7.032;2023-08-24T14:40:41;26.05;66.12
68177;DHT22;56478;50.982;7.032;2023-08-24T14:43:06;26.00;64.43
68177;DHT22;56478;50.982;7.032;2023-08-24T14:45:32;25.84;64.76
68177;DHT22;56478;50.982;7.032;2023-08-24T14:47:58;25.98;65.32
68177;DHT22;56478;50.982;7.032;2023-08-24T14:50:23;25.84;65.19
68177;DHT22;56478;50.982;7.032;2023-08-24T14:52:48;25.95;66.61
68177;DHT22;56478;50.982;7.032;2023-08-24T14:55:14;25.65;66.18
68177;DHT22;56478;50.982;7.032;2023-08-24T14:57:40;25.49;68.59
68177;DHT22;56478;50.982;7.032;2023-08-24T15:00:06;25.41;69.38
68177;DHT22;56478;50.982;7.032;2023-08-24T15:02:35;25.41;69.49
68177;DHT22;56478;50.982;7.032;2023-08-24T15:05:02;25.39;71.41
68177;DHT22;56478;50.982;7.032;2023-08-24T15:07:28;25.19;70.95
68177;DHT22;56478;50.982;7.032;2023-08-24T15:09:54;24.97;71.61
68177;DHT22;56478;50.982;7.032;2023-08-24T15:12:20;24.77;71.87
68177;DHT22;56478;50.982;7.032;2023-08-24T15:15:00;24.64;73.28
68177;DHT22;56478;50.982;7.032;2023-08-24T15:17:26;24.49;72.79
68177;DHT22;56478;50.982;7.032;2023-08-24T15:19:53;24.43;72.25
68177;DHT22;56478;50.982;7.032;2023-08-24T15:22:19;24.35;71.61
68177;DHT22;56478;50.982;7.032;2023-08-24T15:24:44;24.26;73.92
68177;DHT22;56478;50.982;7.032;2023-08-24T15:27:10;24.25;73.60
68177;DHT22;56478;50.982;7.032;2023-08-24T15:29:36;24.25;73.50
68177;DHT22;56478;50.982;7.032;2023-08-24T15:32:01;24.18;75.49
68177;DHT22;56478;50.982;7.032;2023-08-24T15:34:27;24.12;76.28
68177;DHT22;56478;50.982;7.032;2023-08-24T15:36:52;24.10;74.25
68177;DHT22;56478;50.982;7.032;2023-08-24T15:39:19;24.15;75.34
68177;DHT22;56478;50.982;7.032;2023-08-24T15:41:45;24.05;75.39
68177;DHT22;56478;50.982;7.032;2023-08-24T15:44:10;23.87;75.64
68177;DHT22;56478;50.982;7.032;2023-08-24T15:46:36;23.88;75.95
68177;DHT22;56478;50.982;7.032;2023-08-24T15:49:02;23.86;75.43
68177;DHT22;56478;50.982;7.032;2023-08-24T15:51:27;23.58;76.79
68177;DHT22;56478;50.982;7.032;2023-08-24T15:53:53;23.53;78.00
68177;DHT22;56478;50.982;7.032;2023-08-24T15:56:19;23.46;78.69
68177;DHT22;56478;50.982;7.032;2023-08-24T15:58:44;23.31;77.74
68177;DHT22;56478;50.982;7.032;2023-08-24T16:01:11;23.22;79.30